GFA135 VCBI-OBBI
Flight info
| Callsign | GFA135 |
|---|---|
| Flight time | 3h 42m |
| Altitude | 34000 |
| Route | BASUR1D BASUR P570 KITAL/N0459F360 P570 EMURU N563 SODEX DCT BOSEV N563 IMGUX P699 ORMID M556 ORDIG |
| Aircraft | A321/M-SDE3FGHIRWY/LB1 |
Departure
| Time | 2026-05-04 23:54 |
|---|---|
| Airport | Bandaranaike International Colombo Airport (VCBI) |
Arrival
| Time | 2026-05-05 03:36 |
|---|---|
| Airport | Bahrain International Airport (OBBI) |
| Time | Latitude | Longitude | Altitude | Speed | Heading |
|---|---|---|---|---|---|
| 2026-05-04 23:27 | 7.17715 | 79.88435 | 28 ft | 0 kts | 207° |
| 2026-05-04 23:28 | 7.17611 | 79.88413 | 28 ft | 0 kts | 37° |
| 2026-05-04 23:42 | 7.17592 | 79.88399 | 27 ft | 4 kts | 32° |
| 2026-05-04 23:42 | 7.17568 | 79.88386 | 27 ft | 4 kts | 21° |
| 2026-05-04 23:42 | 7.17543 | 79.88380 | 27 ft | 4 kts | 352° |
| 2026-05-04 23:43 | 7.17527 | 79.88386 | 27 ft | 0 kts | 307° |
| 2026-05-04 23:46 | 7.17534 | 79.88377 | 27 ft | 2 kts | 307° |
| 2026-05-04 23:46 | 7.17543 | 79.88364 | 27 ft | 3 kts | 307° |
| 2026-05-04 23:47 | 7.17556 | 79.88348 | 27 ft | 3 kts | 307° |
| 2026-05-04 23:47 | 7.17572 | 79.88327 | 27 ft | 4 kts | 307° |
| 2026-05-04 23:47 | 7.17590 | 79.88302 | 27 ft | 5 kts | 307° |
| 2026-05-04 23:47 | 7.17612 | 79.88273 | 27 ft | 5 kts | 311° |
| 2026-05-04 23:48 | 7.17656 | 79.88258 | 28 ft | 8 kts | 9° |
| 2026-05-04 23:48 | 7.17718 | 79.88297 | 28 ft | 12 kts | 37° |
| 2026-05-04 23:48 | 7.17798 | 79.88359 | 27 ft | 17 kts | 37° |
| 2026-05-04 23:48 | 7.17899 | 79.88437 | 27 ft | 21 kts | 37° |
| 2026-05-04 23:49 | 7.18020 | 79.88529 | 27 ft | 25 kts | 37° |
| 2026-05-04 23:49 | 7.18107 | 79.88596 | 27 ft | 27 kts | 37° |
| 2026-05-04 23:49 | 7.18275 | 79.88723 | 27 ft | 31 kts | 37° |
| 2026-05-04 23:49 | 7.18422 | 79.88835 | 27 ft | 21 kts | 37° |
| 2026-05-04 23:50 | 7.18534 | 79.88921 | 28 ft | 19 kts | 37° |
| 2026-05-04 23:50 | 7.18635 | 79.88998 | 28 ft | 18 kts | 37° |
| 2026-05-04 23:50 | 7.18733 | 79.89073 | 28 ft | 17 kts | 37° |
| 2026-05-04 23:50 | 7.18820 | 79.89140 | 28 ft | 15 kts | 37° |
| 2026-05-04 23:51 | 7.18901 | 79.89201 | 27 ft | 14 kts | 37° |
| 2026-05-04 23:51 | 7.18974 | 79.89257 | 27 ft | 13 kts | 37° |
| 2026-05-04 23:51 | 7.19038 | 79.89305 | 27 ft | 11 kts | 37° |
| 2026-05-04 23:51 | 7.19097 | 79.89351 | 27 ft | 10 kts | 37° |
| 2026-05-04 23:52 | 7.19146 | 79.89388 | 27 ft | 8 kts | 37° |
| 2026-05-04 23:52 | 7.19192 | 79.89407 | 27 ft | 6 kts | 358° |
| 2026-05-04 23:52 | 7.19229 | 79.89380 | 27 ft | 8 kts | 310° |
| 2026-05-04 23:52 | 7.19270 | 79.89329 | 26 ft | 11 kts | 308° |
| 2026-05-04 23:53 | 7.19279 | 79.89268 | 27 ft | 9 kts | 233° |
| 2026-05-04 23:53 | 7.19205 | 79.89208 | 28 ft | 26 kts | 217° |
| 2026-05-04 23:53 | 7.18864 | 79.88948 | 30 ft | 94 kts | 217° |
| 2026-05-04 23:53 | 7.18191 | 79.88433 | 27 ft | 147 kts | 217° |
| 2026-05-04 23:54 | 7.17267 | 79.87715 | 50 ft | 185 kts | 219° |
| 2026-05-04 23:54 | 7.16313 | 79.86930 | 766 ft | 174 kts | 225° |
| 2026-05-04 23:54 | 7.15848 | 79.85815 | 1311 ft | 182 kts | 272° |
| 2026-05-04 23:54 | 7.16159 | 79.84588 | 1945 ft | 180 kts | 282° |
| 2026-05-04 23:55 | 7.16516 | 79.83337 | 2151 ft | 194 kts | 282° |
| 2026-05-04 23:55 | 7.16885 | 79.81966 | 2294 ft | 211 kts | 281° |
| 2026-05-04 23:55 | 7.17706 | 79.78853 | 2613 ft | 249 kts | 282° |
| 2026-05-04 23:56 | 7.18374 | 79.77235 | 3089 ft | 260 kts | 302° |
| 2026-05-04 23:56 | 7.19490 | 79.75790 | 3742 ft | 263 kts | 305° |
| 2026-05-04 23:56 | 7.20621 | 79.74333 | 4368 ft | 265 kts | 305° |
| 2026-05-04 23:56 | 7.21759 | 79.72854 | 4982 ft | 268 kts | 304° |
| 2026-05-04 23:57 | 7.22907 | 79.71360 | 5575 ft | 271 kts | 304° |
| 2026-05-04 23:57 | 7.24063 | 79.69851 | 6177 ft | 273 kts | 303° |
| 2026-05-04 23:57 | 7.24978 | 79.68189 | 6681 ft | 273 kts | 291° |
| 2026-05-04 23:57 | 7.25751 | 79.66437 | 7215 ft | 275 kts | 291° |
| 2026-05-04 23:58 | 7.26538 | 79.64668 | 7741 ft | 279 kts | 292° |
| 2026-05-04 23:58 | 7.27330 | 79.62892 | 8196 ft | 284 kts | 292° |
| 2026-05-04 23:58 | 7.28149 | 79.61062 | 8694 ft | 288 kts | 292° |
| 2026-05-04 23:58 | 7.28980 | 79.59207 | 9203 ft | 292 kts | 293° |
| 2026-05-04 23:59 | 7.29820 | 79.57328 | 9703 ft | 296 kts | 294° |
| 2026-05-04 23:59 | 7.30671 | 79.55429 | 10141 ft | 300 kts | 294° |
| 2026-05-04 23:59 | 7.31552 | 79.53460 | 10286 ft | 317 kts | 293° |
| 2026-05-04 23:59 | 7.32479 | 79.51384 | 10406 ft | 333 kts | 293° |
| 2026-05-05 00:00 | 7.33452 | 79.49202 | 10520 ft | 349 kts | 294° |
| 2026-05-05 00:00 | 7.33790 | 79.48444 | 10564 ft | 354 kts | 294° |
| 2026-05-05 00:00 | 7.35521 | 79.44580 | 10972 ft | 370 kts | 294° |
| 2026-05-05 00:00 | 7.36586 | 79.42206 | 11424 ft | 373 kts | 294° |
| 2026-05-05 00:01 | 7.37659 | 79.39815 | 11903 ft | 375 kts | 294° |
| 2026-05-05 00:01 | 7.38735 | 79.37413 | 12378 ft | 378 kts | 293° |
| 2026-05-05 00:01 | 7.39815 | 79.34994 | 12849 ft | 380 kts | 294° |
| 2026-05-05 00:01 | 7.40903 | 79.32558 | 13314 ft | 382 kts | 293° |
| 2026-05-05 00:02 | 7.41985 | 79.30140 | 13757 ft | 385 kts | 293° |
| 2026-05-05 00:02 | 7.43086 | 79.27671 | 14149 ft | 388 kts | 293° |
| 2026-05-05 00:02 | 7.44196 | 79.25184 | 14534 ft | 390 kts | 293° |
| 2026-05-05 00:02 | 7.45316 | 79.22678 | 14915 ft | 393 kts | 294° |
| 2026-05-05 00:03 | 7.46443 | 79.20157 | 15299 ft | 395 kts | 294° |
| 2026-05-05 00:03 | 7.47578 | 79.17618 | 15651 ft | 399 kts | 293° |
| 2026-05-05 00:03 | 7.48723 | 79.15051 | 15981 ft | 402 kts | 293° |
| 2026-05-05 00:03 | 7.49870 | 79.12475 | 16360 ft | 404 kts | 293° |
| 2026-05-05 00:04 | 7.51027 | 79.09882 | 16726 ft | 407 kts | 293° |
| 2026-05-05 00:04 | 7.52191 | 79.07272 | 17055 ft | 410 kts | 293° |
| 2026-05-05 00:04 | 7.53364 | 79.04642 | 17398 ft | 412 kts | 293° |
| 2026-05-05 00:04 | 7.54536 | 79.02007 | 17776 ft | 413 kts | 293° |
| 2026-05-05 00:05 | 7.55716 | 78.99360 | 18132 ft | 415 kts | 293° |
| 2026-05-05 00:05 | 7.56902 | 78.96702 | 18399 ft | 417 kts | 293° |
| 2026-05-05 00:05 | 7.58095 | 78.94024 | 18700 ft | 419 kts | 293° |
| 2026-05-05 00:05 | 7.59289 | 78.91340 | 18956 ft | 422 kts | 293° |
| 2026-05-05 00:06 | 7.60490 | 78.88639 | 19243 ft | 423 kts | 293° |
| 2026-05-05 00:06 | 7.61697 | 78.85926 | 19514 ft | 425 kts | 293° |
| 2026-05-05 00:06 | 7.62910 | 78.83200 | 19786 ft | 427 kts | 293° |
| 2026-05-05 00:06 | 7.64130 | 78.80459 | 20063 ft | 429 kts | 293° |
| 2026-05-05 00:07 | 7.65352 | 78.77713 | 20342 ft | 430 kts | 294° |
| 2026-05-05 00:07 | 7.66582 | 78.74956 | 20586 ft | 433 kts | 294° |
| 2026-05-05 00:07 | 7.67809 | 78.72207 | 20824 ft | 435 kts | 293° |
| 2026-05-05 00:07 | 7.69051 | 78.69420 | 21092 ft | 437 kts | 294° |
| 2026-05-05 00:08 | 7.70301 | 78.66613 | 21307 ft | 440 kts | 293° |
| 2026-05-05 00:08 | 7.71558 | 78.63793 | 21515 ft | 443 kts | 293° |
| 2026-05-05 00:08 | 7.72822 | 78.60955 | 21788 ft | 444 kts | 293° |
| 2026-05-05 00:08 | 7.74090 | 78.58107 | 22061 ft | 445 kts | 293° |
| 2026-05-05 00:09 | 7.75366 | 78.55240 | 22267 ft | 448 kts | 293° |
| 2026-05-05 00:09 | 7.76642 | 78.52369 | 22549 ft | 449 kts | 292° |
| 2026-05-05 00:09 | 7.77920 | 78.49490 | 22797 ft | 451 kts | 292° |
| 2026-05-05 00:09 | 7.79205 | 78.46596 | 23049 ft | 453 kts | 292° |
| 2026-05-05 00:10 | 7.80496 | 78.43690 | 23215 ft | 456 kts | 293° |
| 2026-05-05 00:10 | 7.81794 | 78.40770 | 23474 ft | 457 kts | 292° |
| 2026-05-05 00:10 | 7.83096 | 78.37836 | 23629 ft | 459 kts | 292° |
| 2026-05-05 00:10 | 7.84402 | 78.34885 | 23778 ft | 462 kts | 292° |
| 2026-05-05 00:11 | 7.85712 | 78.31920 | 24004 ft | 462 kts | 292° |
| 2026-05-05 00:11 | 7.87027 | 78.28952 | 24240 ft | 462 kts | 292° |
| 2026-05-05 00:11 | 7.88342 | 78.25988 | 24412 ft | 464 kts | 293° |
| 2026-05-05 00:11 | 7.89661 | 78.23016 | 24668 ft | 463 kts | 293° |
| 2026-05-05 00:12 | 7.90979 | 78.20050 | 24881 ft | 464 kts | 293° |
| 2026-05-05 00:12 | 7.92296 | 78.17076 | 25048 ft | 466 kts | 292° |
| 2026-05-05 00:12 | 7.93626 | 78.14080 | 25223 ft | 467 kts | 293° |
| 2026-05-05 00:12 | 7.94958 | 78.11084 | 25410 ft | 469 kts | 292° |
| 2026-05-05 00:13 | 7.96300 | 78.08071 | 25596 ft | 470 kts | 293° |
| 2026-05-05 00:13 | 7.97620 | 78.05102 | 25765 ft | 471 kts | 292° |
| 2026-05-05 00:13 | 7.98960 | 78.02082 | 25990 ft | 471 kts | 292° |
| 2026-05-05 00:13 | 8.00302 | 77.99049 | 26149 ft | 473 kts | 293° |
| 2026-05-05 00:14 | 8.01643 | 77.96020 | 26350 ft | 473 kts | 293° |
| 2026-05-05 00:14 | 8.02988 | 77.92990 | 26585 ft | 473 kts | 293° |
| 2026-05-05 00:14 | 8.04336 | 77.89958 | 26741 ft | 474 kts | 292° |
| 2026-05-05 00:14 | 8.05690 | 77.86916 | 26902 ft | 475 kts | 293° |
| 2026-05-05 00:15 | 8.07045 | 77.83873 | 27068 ft | 476 kts | 292° |
| 2026-05-05 00:15 | 8.08400 | 77.80822 | 27199 ft | 478 kts | 292° |
| 2026-05-05 00:15 | 8.09759 | 77.77753 | 27358 ft | 479 kts | 292° |
| 2026-05-05 00:15 | 8.11116 | 77.74689 | 27553 ft | 479 kts | 293° |
| 2026-05-05 00:16 | 8.12480 | 77.71618 | 27698 ft | 481 kts | 293° |
| 2026-05-05 00:16 | 8.13850 | 77.68536 | 27878 ft | 481 kts | 292° |
| 2026-05-05 00:16 | 8.15220 | 77.65449 | 28043 ft | 482 kts | 293° |
| 2026-05-05 00:16 | 8.16592 | 77.62355 | 28216 ft | 483 kts | 293° |
| 2026-05-05 00:17 | 8.17962 | 77.59253 | 28370 ft | 484 kts | 293° |
| 2026-05-05 00:17 | 8.19335 | 77.56146 | 28603 ft | 483 kts | 292° |
| 2026-05-05 00:17 | 8.20705 | 77.53054 | 28800 ft | 484 kts | 292° |
| 2026-05-05 00:17 | 8.22080 | 77.49952 | 29028 ft | 483 kts | 292° |
| 2026-05-05 00:18 | 8.23451 | 77.46858 | 29261 ft | 482 kts | 292° |
| 2026-05-05 00:18 | 8.24819 | 77.43770 | 29459 ft | 482 kts | 292° |
| 2026-05-05 00:18 | 8.26185 | 77.40687 | 29710 ft | 480 kts | 293° |
| 2026-05-05 00:18 | 8.27551 | 77.37602 | 29912 ft | 480 kts | 292° |
| 2026-05-05 00:19 | 8.28910 | 77.34528 | 30076 ft | 480 kts | 292° |
| 2026-05-05 00:19 | 8.30268 | 77.31453 | 30260 ft | 479 kts | 293° |
| 2026-05-05 00:19 | 8.31628 | 77.28374 | 30451 ft | 479 kts | 292° |
| 2026-05-05 00:19 | 8.32981 | 77.25307 | 30633 ft | 478 kts | 292° |
| 2026-05-05 00:20 | 8.34335 | 77.22242 | 30839 ft | 477 kts | 293° |
| 2026-05-05 00:20 | 8.35683 | 77.19189 | 31088 ft | 475 kts | 292° |
| 2026-05-05 00:20 | 8.37024 | 77.16149 | 31322 ft | 474 kts | 293° |
| 2026-05-05 00:20 | 8.38364 | 77.13108 | 31540 ft | 472 kts | 293° |
| 2026-05-05 00:21 | 8.39680 | 77.10124 | 31752 ft | 471 kts | 293° |
| 2026-05-05 00:21 | 8.41012 | 77.07102 | 31967 ft | 470 kts | 292° |
| 2026-05-05 00:21 | 8.42342 | 77.04088 | 32175 ft | 470 kts | 293° |
| 2026-05-05 00:21 | 8.43672 | 77.01078 | 32396 ft | 469 kts | 293° |
| 2026-05-05 00:22 | 8.44567 | 76.99051 | 32551 ft | 468 kts | 293° |
| 2026-05-05 00:22 | 8.46321 | 76.95084 | 32837 ft | 466 kts | 293° |
| 2026-05-05 00:22 | 8.47777 | 76.92160 | 33040 ft | 466 kts | 301° |
| 2026-05-05 00:22 | 8.48992 | 76.90319 | 33184 ft | 466 kts | 305° |
| 2026-05-05 00:23 | 8.50886 | 76.87661 | 33396 ft | 465 kts | 305° |
| 2026-05-05 00:23 | 8.52772 | 76.85010 | 33560 ft | 465 kts | 305° |
| 2026-05-05 00:23 | 8.54660 | 76.82354 | 33740 ft | 465 kts | 304° |
| 2026-05-05 00:24 | 8.58406 | 76.77085 | 33859 ft | 463 kts | 304° |
| 2026-05-05 00:24 | 8.62164 | 76.71810 | 33860 ft | 462 kts | 304° |
| 2026-05-05 00:25 | 8.65919 | 76.66537 | 33863 ft | 462 kts | 305° |
| 2026-05-05 00:25 | 8.69672 | 76.61258 | 33864 ft | 462 kts | 304° |
| 2026-05-05 00:26 | 8.73414 | 76.55989 | 33868 ft | 462 kts | 304° |
| 2026-05-05 00:26 | 8.77162 | 76.50713 | 33863 ft | 462 kts | 305° |
| 2026-05-05 00:27 | 8.80909 | 76.45440 | 33841 ft | 463 kts | 306° |
| 2026-05-05 00:27 | 8.84684 | 76.40132 | 33835 ft | 465 kts | 306° |
| 2026-05-05 00:28 | 8.88462 | 76.34819 | 33858 ft | 465 kts | 305° |
| 2026-05-05 00:28 | 8.92238 | 76.29487 | 33857 ft | 465 kts | 305° |
| 2026-05-05 00:29 | 8.95997 | 76.24165 | 33857 ft | 465 kts | 305° |
| 2026-05-05 00:29 | 8.99771 | 76.18841 | 33861 ft | 465 kts | 306° |
| 2026-05-05 00:30 | 9.03543 | 76.13524 | 33864 ft | 465 kts | 305° |
| 2026-05-05 00:30 | 9.07293 | 76.08232 | 33844 ft | 466 kts | 305° |
| 2026-05-05 00:31 | 9.11094 | 76.02860 | 33845 ft | 468 kts | 305° |
| 2026-05-05 00:31 | 9.14890 | 75.97499 | 33860 ft | 468 kts | 305° |
| 2026-05-05 00:32 | 9.18655 | 75.92173 | 33867 ft | 468 kts | 304° |
| 2026-05-05 00:32 | 9.22441 | 75.86806 | 33866 ft | 468 kts | 304° |
| 2026-05-05 00:33 | 9.26222 | 75.81449 | 33859 ft | 467 kts | 304° |
| 2026-05-05 00:33 | 9.30004 | 75.76099 | 33865 ft | 467 kts | 304° |
| 2026-05-05 00:34 | 9.33789 | 75.70744 | 33856 ft | 468 kts | 304° |
| 2026-05-05 00:34 | 9.37572 | 75.65381 | 33856 ft | 468 kts | 304° |
| 2026-05-05 00:35 | 9.41356 | 75.60014 | 33862 ft | 468 kts | 304° |
| 2026-05-05 00:35 | 9.45151 | 75.54641 | 33859 ft | 468 kts | 305° |
| 2026-05-05 00:36 | 9.48939 | 75.49276 | 33866 ft | 468 kts | 304° |
| 2026-05-05 00:36 | 9.52719 | 75.43900 | 33865 ft | 468 kts | 304° |
| 2026-05-05 00:37 | 9.56506 | 75.38513 | 33843 ft | 470 kts | 304° |
| 2026-05-05 00:37 | 9.60307 | 75.33115 | 33847 ft | 471 kts | 304° |
| 2026-05-05 00:38 | 9.64100 | 75.27734 | 33859 ft | 472 kts | 304° |
| 2026-05-05 00:38 | 9.67917 | 75.22318 | 33854 ft | 473 kts | 304° |
| 2026-05-05 00:39 | 9.71735 | 75.16892 | 33859 ft | 473 kts | 304° |
| 2026-05-05 00:39 | 9.75543 | 75.11451 | 33857 ft | 473 kts | 304° |
| 2026-05-05 00:40 | 9.79354 | 75.06015 | 33864 ft | 473 kts | 304° |
| 2026-05-05 00:40 | 9.83175 | 75.00580 | 33865 ft | 473 kts | 304° |
| 2026-05-05 00:41 | 9.86997 | 74.95134 | 33864 ft | 474 kts | 304° |
| 2026-05-05 00:41 | 9.90822 | 74.89683 | 33849 ft | 475 kts | 304° |
| 2026-05-05 00:42 | 9.94634 | 74.84255 | 33857 ft | 475 kts | 304° |
| 2026-05-05 00:42 | 9.98460 | 74.78783 | 33856 ft | 476 kts | 304° |
| 2026-05-05 00:43 | 10.02293 | 74.73304 | 33870 ft | 476 kts | 304° |
| 2026-05-05 00:43 | 10.06136 | 74.67820 | 33867 ft | 477 kts | 304° |
| 2026-05-05 00:44 | 10.09979 | 74.62330 | 33866 ft | 477 kts | 304° |
| 2026-05-05 00:44 | 10.13820 | 74.56837 | 33871 ft | 477 kts | 304° |
| 2026-05-05 00:45 | 10.17655 | 74.51342 | 33875 ft | 477 kts | 304° |
| 2026-05-05 00:45 | 10.21489 | 74.45858 | 33884 ft | 476 kts | 304° |
| 2026-05-05 00:46 | 10.25318 | 74.40385 | 33892 ft | 474 kts | 304° |
| 2026-05-05 00:46 | 10.29122 | 74.34921 | 33894 ft | 473 kts | 304° |
| 2026-05-05 00:47 | 10.32923 | 74.29466 | 33888 ft | 473 kts | 304° |
| 2026-05-05 00:47 | 10.36707 | 74.24054 | 33888 ft | 472 kts | 305° |
| 2026-05-05 00:48 | 10.40509 | 74.18610 | 33882 ft | 472 kts | 305° |
| 2026-05-05 00:48 | 10.44328 | 74.13181 | 33875 ft | 472 kts | 305° |
| 2026-05-05 00:49 | 10.48165 | 74.07753 | 33868 ft | 473 kts | 305° |
| 2026-05-05 00:49 | 10.52004 | 74.02327 | 33868 ft | 473 kts | 305° |
| 2026-05-05 00:50 | 10.55838 | 73.96899 | 33890 ft | 472 kts | 306° |
| 2026-05-05 00:50 | 10.59660 | 73.91481 | 33895 ft | 471 kts | 305° |
| 2026-05-05 00:51 | 10.63475 | 73.86068 | 33892 ft | 470 kts | 305° |
| 2026-05-05 00:51 | 10.67286 | 73.80666 | 33893 ft | 470 kts | 305° |
| 2026-05-05 00:52 | 10.71054 | 73.75304 | 33893 ft | 469 kts | 305° |
| 2026-05-05 00:52 | 10.74855 | 73.69915 | 33889 ft | 469 kts | 306° |
| 2026-05-05 00:53 | 10.78645 | 73.64531 | 33890 ft | 468 kts | 305° |
| 2026-05-05 00:53 | 10.82430 | 73.59118 | 33877 ft | 469 kts | 305° |
| 2026-05-05 00:54 | 10.86226 | 73.53714 | 33883 ft | 469 kts | 306° |
| 2026-05-05 00:54 | 10.90022 | 73.48315 | 33878 ft | 469 kts | 305° |
| 2026-05-05 00:55 | 10.93820 | 73.42917 | 33884 ft | 469 kts | 305° |
| 2026-05-05 00:55 | 10.97609 | 73.37512 | 33881 ft | 469 kts | 305° |
| 2026-05-05 00:56 | 11.01405 | 73.32103 | 33884 ft | 469 kts | 305° |
| 2026-05-05 00:56 | 11.05199 | 73.26699 | 33892 ft | 468 kts | 305° |
| 2026-05-05 00:57 | 11.08981 | 73.21301 | 33893 ft | 467 kts | 305° |
| 2026-05-05 00:57 | 11.12721 | 73.15962 | 33891 ft | 466 kts | 305° |
| 2026-05-05 00:58 | 11.16482 | 73.10584 | 33892 ft | 466 kts | 305° |
| 2026-05-05 00:58 | 11.20235 | 73.05208 | 33889 ft | 466 kts | 305° |
| 2026-05-05 00:59 | 11.23993 | 72.99835 | 33892 ft | 466 kts | 305° |
| 2026-05-05 00:59 | 11.27756 | 72.94457 | 33892 ft | 466 kts | 305° |
| 2026-05-05 01:00 | 11.31515 | 72.89080 | 33898 ft | 465 kts | 305° |
| 2026-05-05 01:00 | 11.35266 | 72.83702 | 33899 ft | 465 kts | 305° |
| 2026-05-05 01:01 | 11.39008 | 72.78332 | 33898 ft | 464 kts | 305° |
| 2026-05-05 01:01 | 11.42752 | 72.72970 | 33894 ft | 464 kts | 305° |
| 2026-05-05 01:02 | 11.46488 | 72.67612 | 33896 ft | 463 kts | 305° |
| 2026-05-05 01:02 | 11.50220 | 72.62250 | 33885 ft | 463 kts | 305° |
| 2026-05-05 01:03 | 11.53951 | 72.56898 | 33883 ft | 463 kts | 305° |
| 2026-05-05 01:03 | 11.57681 | 72.51549 | 33877 ft | 463 kts | 305° |
| 2026-05-05 01:04 | 11.61400 | 72.46192 | 33882 ft | 463 kts | 305° |
| 2026-05-05 01:04 | 11.66985 | 72.38154 | 33879 ft | 463 kts | 305° |
| 2026-05-05 01:05 | 11.70716 | 72.32791 | 33883 ft | 463 kts | 305° |
| 2026-05-05 01:05 | 11.74436 | 72.27430 | 33883 ft | 463 kts | 305° |
| 2026-05-05 01:06 | 11.77527 | 72.22967 | 33887 ft | 463 kts | 305° |
| 2026-05-05 01:06 | 11.81849 | 72.16726 | 33889 ft | 463 kts | 305° |
| 2026-05-05 01:07 | 11.84962 | 72.12234 | 33883 ft | 463 kts | 305° |
| 2026-05-05 01:07 | 11.88683 | 72.06873 | 33885 ft | 462 kts | 305° |
| 2026-05-05 01:08 | 11.92401 | 72.01505 | 33882 ft | 462 kts | 305° |
| 2026-05-05 01:08 | 11.96124 | 71.96202 | 33880 ft | 462 kts | 306° |
| 2026-05-05 01:09 | 11.99969 | 71.90944 | 33887 ft | 462 kts | 307° |
| 2026-05-05 01:09 | 12.03827 | 71.85689 | 33872 ft | 462 kts | 307° |
| 2026-05-05 01:10 | 12.07673 | 71.80404 | 33884 ft | 463 kts | 306° |
| 2026-05-05 01:10 | 12.11495 | 71.75099 | 33889 ft | 463 kts | 306° |
| 2026-05-05 01:11 | 12.15315 | 71.69790 | 33893 ft | 464 kts | 307° |
| 2026-05-05 01:11 | 12.19151 | 71.64490 | 33901 ft | 463 kts | 307° |
| 2026-05-05 01:12 | 12.22980 | 71.59212 | 33895 ft | 462 kts | 307° |
| 2026-05-05 01:12 | 12.26793 | 71.53927 | 33898 ft | 462 kts | 307° |
| 2026-05-05 01:13 | 12.30610 | 71.48642 | 33900 ft | 462 kts | 307° |
| 2026-05-05 01:13 | 12.34424 | 71.43361 | 33899 ft | 461 kts | 307° |
| 2026-05-05 01:14 | 12.38216 | 71.38115 | 33904 ft | 461 kts | 307° |
| 2026-05-05 01:14 | 12.42029 | 71.32830 | 33901 ft | 461 kts | 307° |
| 2026-05-05 01:15 | 12.45829 | 71.27545 | 33896 ft | 461 kts | 307° |
| 2026-05-05 01:15 | 12.49632 | 71.22252 | 33902 ft | 461 kts | 307° |
| 2026-05-05 01:16 | 12.53433 | 71.16982 | 33903 ft | 460 kts | 307° |
| 2026-05-05 01:16 | 12.57238 | 71.11712 | 33903 ft | 460 kts | 307° |
| 2026-05-05 01:17 | 12.61039 | 71.06444 | 33897 ft | 460 kts | 307° |
| 2026-05-05 01:17 | 12.64840 | 71.01161 | 33897 ft | 461 kts | 307° |
| 2026-05-05 01:18 | 12.68641 | 70.95882 | 33894 ft | 460 kts | 307° |
| 2026-05-05 01:18 | 12.72438 | 70.90604 | 33898 ft | 460 kts | 307° |
| 2026-05-05 01:19 | 12.76229 | 70.85324 | 33900 ft | 460 kts | 307° |
| 2026-05-05 01:19 | 12.79992 | 70.80086 | 33903 ft | 459 kts | 307° |
| 2026-05-05 01:20 | 12.83796 | 70.74779 | 33901 ft | 458 kts | 307° |
| 2026-05-05 01:20 | 12.87538 | 70.69551 | 33899 ft | 458 kts | 307° |
| 2026-05-05 01:21 | 12.91315 | 70.64298 | 33899 ft | 458 kts | 307° |
| 2026-05-05 01:21 | 12.95087 | 70.59033 | 33898 ft | 458 kts | 307° |
| 2026-05-05 01:22 | 12.98857 | 70.53763 | 33895 ft | 459 kts | 307° |
| 2026-05-05 01:22 | 13.02636 | 70.48488 | 33895 ft | 459 kts | 307° |
| 2026-05-05 01:23 | 13.06409 | 70.43212 | 33896 ft | 459 kts | 307° |
| 2026-05-05 01:23 | 13.10166 | 70.37919 | 33889 ft | 459 kts | 306° |
| 2026-05-05 01:24 | 13.13924 | 70.32612 | 33876 ft | 459 kts | 306° |
| 2026-05-05 01:24 | 13.17679 | 70.27311 | 33892 ft | 459 kts | 307° |
| 2026-05-05 01:25 | 13.21446 | 70.22003 | 33896 ft | 459 kts | 307° |
| 2026-05-05 01:25 | 13.25182 | 70.16736 | 33874 ft | 459 kts | 306° |
| 2026-05-05 01:26 | 13.28941 | 70.11432 | 33887 ft | 459 kts | 307° |
| 2026-05-05 01:26 | 13.32698 | 70.06128 | 33893 ft | 459 kts | 307° |
| 2026-05-05 01:27 | 13.36448 | 70.00820 | 33891 ft | 459 kts | 307° |
| 2026-05-05 01:27 | 13.40197 | 69.95500 | 33882 ft | 459 kts | 306° |
| 2026-05-05 01:28 | 13.43953 | 69.90188 | 33873 ft | 459 kts | 306° |
| 2026-05-05 01:28 | 13.47718 | 69.84872 | 33888 ft | 460 kts | 306° |
| 2026-05-05 01:29 | 13.51468 | 69.79557 | 33892 ft | 460 kts | 306° |
| 2026-05-05 01:29 | 13.55228 | 69.74229 | 33891 ft | 460 kts | 306° |
| 2026-05-05 01:30 | 13.58980 | 69.68892 | 33889 ft | 460 kts | 306° |
| 2026-05-05 01:30 | 13.62726 | 69.63555 | 33892 ft | 460 kts | 306° |
| 2026-05-05 01:31 | 13.66458 | 69.58255 | 33893 ft | 460 kts | 306° |
| 2026-05-05 01:31 | 13.70212 | 69.52926 | 33890 ft | 460 kts | 306° |
| 2026-05-05 01:32 | 13.73967 | 69.47588 | 33887 ft | 461 kts | 306° |
| 2026-05-05 01:32 | 13.77724 | 69.42245 | 33882 ft | 461 kts | 306° |
| 2026-05-05 01:33 | 13.81480 | 69.36898 | 33888 ft | 461 kts | 306° |
| 2026-05-05 01:33 | 13.85232 | 69.31543 | 33891 ft | 461 kts | 306° |
| 2026-05-05 01:34 | 13.88989 | 69.26179 | 33884 ft | 461 kts | 306° |
| 2026-05-05 01:34 | 13.92747 | 69.20815 | 33891 ft | 461 kts | 306° |
| 2026-05-05 01:35 | 13.96476 | 69.15492 | 33872 ft | 461 kts | 306° |
| 2026-05-05 01:35 | 14.00235 | 69.10130 | 33884 ft | 462 kts | 306° |
| 2026-05-05 01:36 | 14.03989 | 69.04758 | 33882 ft | 462 kts | 306° |
| 2026-05-05 01:36 | 14.07745 | 68.99378 | 33882 ft | 462 kts | 306° |
| 2026-05-05 01:37 | 14.11959 | 68.93385 | 33890 ft | 463 kts | 307° |
| 2026-05-05 01:37 | 14.27111 | 68.71942 | 33889 ft | 463 kts | 306° |
| 2026-05-05 01:38 | 14.42276 | 68.50376 | 33887 ft | 463 kts | 306° |
| 2026-05-05 01:38 | 14.57437 | 68.28796 | 33887 ft | 464 kts | 307° |
| 2026-05-05 01:39 | 14.72580 | 68.07190 | 33892 ft | 463 kts | 306° |
| 2026-05-05 01:39 | 14.87551 | 67.85742 | 33888 ft | 463 kts | 306° |
| 2026-05-05 01:40 | 15.02577 | 67.64144 | 33901 ft | 462 kts | 306° |
| 2026-05-05 01:40 | 15.17532 | 67.42600 | 33888 ft | 460 kts | 306° |
| 2026-05-05 01:41 | 15.32502 | 67.20982 | 33900 ft | 461 kts | 306° |
| 2026-05-05 01:41 | 15.47426 | 66.99378 | 33900 ft | 460 kts | 306° |
| 2026-05-05 01:42 | 15.62357 | 66.77775 | 33893 ft | 460 kts | 306° |
| 2026-05-05 01:42 | 15.77409 | 66.56276 | 33906 ft | 460 kts | 306° |
| 2026-05-05 01:43 | 15.92303 | 66.34884 | 33887 ft | 459 kts | 306° |
| 2026-05-05 01:43 | 16.07299 | 66.13360 | 33903 ft | 458 kts | 306° |
| 2026-05-05 01:44 | 16.22222 | 65.91835 | 33906 ft | 458 kts | 306° |
| 2026-05-05 01:44 | 16.37096 | 65.70293 | 33923 ft | 456 kts | 305° |
| 2026-05-05 01:45 | 16.51900 | 65.48837 | 33905 ft | 454 kts | 305° |
| 2026-05-05 01:45 | 16.66596 | 65.27462 | 33866 ft | 453 kts | 305° |
| 2026-05-05 01:46 | 16.81158 | 65.06215 | 33898 ft | 451 kts | 305° |
| 2026-05-05 01:46 | 16.95691 | 64.84909 | 33892 ft | 448 kts | 304° |
| 2026-05-05 01:47 | 17.10164 | 64.63673 | 33891 ft | 448 kts | 305° |
| 2026-05-05 01:47 | 17.24589 | 64.42411 | 33854 ft | 448 kts | 305° |
| 2026-05-05 01:48 | 17.39314 | 64.21337 | 33864 ft | 448 kts | 306° |
| 2026-05-05 01:48 | 17.54024 | 64.00394 | 33887 ft | 448 kts | 306° |
| 2026-05-05 01:49 | 17.68809 | 63.79343 | 33870 ft | 447 kts | 306° |
| 2026-05-05 01:49 | 17.83502 | 63.58321 | 33874 ft | 447 kts | 305° |
| 2026-05-05 01:50 | 17.95713 | 63.40797 | 33886 ft | 447 kts | 305° |
| 2026-05-05 01:50 | 18.10387 | 63.19660 | 33878 ft | 446 kts | 305° |
| 2026-05-05 01:51 | 18.27390 | 62.95131 | 33883 ft | 446 kts | 304° |
| 2026-05-05 01:51 | 18.39610 | 62.77447 | 33880 ft | 445 kts | 304° |
| 2026-05-05 01:52 | 18.54056 | 62.56452 | 33866 ft | 445 kts | 304° |
| 2026-05-05 01:52 | 18.68491 | 62.35223 | 33855 ft | 444 kts | 304° |
| 2026-05-05 01:53 | 18.82826 | 62.13987 | 33848 ft | 444 kts | 304° |
| 2026-05-05 01:53 | 18.97160 | 61.92667 | 33871 ft | 444 kts | 304° |
| 2026-05-05 01:54 | 19.11467 | 61.71355 | 33877 ft | 444 kts | 304° |
| 2026-05-05 01:54 | 19.25733 | 61.50021 | 33847 ft | 443 kts | 303° |
| 2026-05-05 01:55 | 19.39895 | 61.28724 | 33842 ft | 442 kts | 303° |
| 2026-05-05 01:55 | 19.53939 | 61.07597 | 33839 ft | 441 kts | 303° |
| 2026-05-05 01:56 | 19.68022 | 60.86272 | 33836 ft | 442 kts | 303° |
| 2026-05-05 01:56 | 19.82137 | 60.64861 | 33833 ft | 442 kts | 303° |
| 2026-05-05 01:57 | 19.96228 | 60.43402 | 33825 ft | 442 kts | 303° |
| 2026-05-05 01:57 | 20.13183 | 60.24877 | 33826 ft | 447 kts | 327° |
| 2026-05-05 01:58 | 20.34549 | 60.11236 | 33818 ft | 447 kts | 327° |
| 2026-05-05 01:58 | 20.55937 | 59.97625 | 33803 ft | 447 kts | 327° |
| 2026-05-05 01:59 | 20.77328 | 59.83966 | 33802 ft | 448 kts | 327° |
| 2026-05-05 01:59 | 20.98722 | 59.70242 | 33802 ft | 448 kts | 327° |
| 2026-05-05 02:00 | 21.20000 | 59.56532 | 33794 ft | 449 kts | 327° |
| 2026-05-05 02:00 | 21.36294 | 59.46029 | 33807 ft | 450 kts | 327° |
| 2026-05-05 02:01 | 21.41649 | 59.42563 | 33808 ft | 450 kts | 327° |
| 2026-05-05 02:01 | 21.47005 | 59.39088 | 33811 ft | 450 kts | 327° |
| 2026-05-05 02:02 | 21.52368 | 59.35608 | 33814 ft | 450 kts | 327° |
| 2026-05-05 02:02 | 21.57717 | 59.32132 | 33813 ft | 450 kts | 327° |
| 2026-05-05 02:03 | 21.63075 | 59.28654 | 33818 ft | 449 kts | 327° |
| 2026-05-05 02:03 | 21.68424 | 59.25186 | 33815 ft | 449 kts | 327° |
| 2026-05-05 02:04 | 21.73778 | 59.21706 | 33820 ft | 450 kts | 327° |
| 2026-05-05 02:04 | 21.79106 | 59.18246 | 33818 ft | 450 kts | 327° |
| 2026-05-05 02:05 | 21.84467 | 59.14760 | 33827 ft | 450 kts | 326° |
| 2026-05-05 02:05 | 21.89814 | 59.11268 | 33831 ft | 449 kts | 326° |
| 2026-05-05 02:06 | 21.95151 | 59.07774 | 33824 ft | 449 kts | 326° |
| 2026-05-05 02:06 | 22.00495 | 59.04288 | 33823 ft | 448 kts | 326° |
| 2026-05-05 02:07 | 22.05838 | 59.00803 | 33825 ft | 449 kts | 326° |
| 2026-05-05 02:07 | 22.11184 | 58.97311 | 33825 ft | 449 kts | 326° |
| 2026-05-05 02:08 | 22.16529 | 58.93809 | 33837 ft | 450 kts | 326° |
| 2026-05-05 02:08 | 22.21686 | 58.90038 | 33835 ft | 446 kts | 315° |
| 2026-05-05 02:09 | 22.25499 | 58.84844 | 33833 ft | 441 kts | 297° |
| 2026-05-05 02:09 | 22.28360 | 58.78989 | 33828 ft | 441 kts | 296° |
| 2026-05-05 02:10 | 22.31235 | 58.73131 | 33826 ft | 441 kts | 296° |
| 2026-05-05 02:10 | 22.34112 | 58.67294 | 33834 ft | 440 kts | 296° |
| 2026-05-05 02:11 | 22.36980 | 58.61452 | 33835 ft | 440 kts | 296° |
| 2026-05-05 02:11 | 22.39822 | 58.55642 | 33831 ft | 439 kts | 296° |
| 2026-05-05 02:12 | 22.44097 | 58.46873 | 33834 ft | 439 kts | 296° |
| 2026-05-05 02:13 | 22.46954 | 58.41031 | 33825 ft | 440 kts | 296° |
| 2026-05-05 02:13 | 22.49809 | 58.35178 | 33823 ft | 440 kts | 296° |
| 2026-05-05 02:14 | 22.52659 | 58.29330 | 33843 ft | 439 kts | 296° |
| 2026-05-05 02:14 | 22.55491 | 58.23489 | 33838 ft | 438 kts | 296° |
| 2026-05-05 02:15 | 22.58321 | 58.17659 | 33824 ft | 437 kts | 296° |
| 2026-05-05 02:15 | 22.61155 | 58.11826 | 33822 ft | 438 kts | 296° |
| 2026-05-05 02:16 | 22.63987 | 58.05993 | 33823 ft | 438 kts | 296° |
| 2026-05-05 02:16 | 22.66817 | 58.00154 | 33821 ft | 438 kts | 296° |
| 2026-05-05 02:17 | 22.69641 | 57.94303 | 33834 ft | 438 kts | 296° |
| 2026-05-05 02:17 | 22.72461 | 57.88458 | 33840 ft | 437 kts | 296° |
| 2026-05-05 02:18 | 22.75275 | 57.82636 | 33836 ft | 436 kts | 296° |
| 2026-05-05 02:18 | 22.78061 | 57.76843 | 33844 ft | 436 kts | 296° |
| 2026-05-05 02:19 | 22.80853 | 57.71024 | 33840 ft | 435 kts | 296° |
| 2026-05-05 02:19 | 22.83653 | 57.65198 | 33832 ft | 435 kts | 296° |
| 2026-05-05 02:20 | 22.86454 | 57.59373 | 33863 ft | 436 kts | 296° |
| 2026-05-05 02:20 | 22.89254 | 57.53543 | 33881 ft | 436 kts | 296° |
| 2026-05-05 02:21 | 22.92045 | 57.47707 | 33902 ft | 435 kts | 295° |
| 2026-05-05 02:21 | 22.94832 | 57.41885 | 33900 ft | 435 kts | 296° |
| 2026-05-05 02:22 | 22.97613 | 57.36066 | 33885 ft | 434 kts | 295° |
| 2026-05-05 02:22 | 23.00385 | 57.30252 | 33896 ft | 434 kts | 296° |
| 2026-05-05 02:23 | 23.03161 | 57.24437 | 33887 ft | 434 kts | 295° |
| 2026-05-05 02:23 | 23.05927 | 57.18622 | 33882 ft | 433 kts | 295° |
| 2026-05-05 02:24 | 23.08676 | 57.12847 | 33889 ft | 433 kts | 296° |
| 2026-05-05 02:24 | 23.11428 | 57.07041 | 33896 ft | 432 kts | 295° |
| 2026-05-05 02:25 | 23.14172 | 57.01240 | 33884 ft | 431 kts | 295° |
| 2026-05-05 02:25 | 23.16916 | 56.95439 | 33883 ft | 431 kts | 295° |
| 2026-05-05 02:26 | 23.19662 | 56.89648 | 33873 ft | 430 kts | 295° |
| 2026-05-05 02:26 | 23.22393 | 56.83860 | 33861 ft | 430 kts | 295° |
| 2026-05-05 02:27 | 23.25128 | 56.78068 | 33874 ft | 430 kts | 295° |
| 2026-05-05 02:27 | 23.27853 | 56.72282 | 33861 ft | 429 kts | 295° |
| 2026-05-05 02:28 | 23.30574 | 56.66511 | 33869 ft | 428 kts | 295° |
| 2026-05-05 02:28 | 23.33289 | 56.60749 | 33853 ft | 428 kts | 295° |
| 2026-05-05 02:29 | 23.35995 | 56.54980 | 33854 ft | 427 kts | 295° |
| 2026-05-05 02:29 | 23.38700 | 56.49211 | 33843 ft | 428 kts | 295° |
| 2026-05-05 02:30 | 23.41401 | 56.43442 | 33848 ft | 428 kts | 295° |
| 2026-05-05 02:30 | 23.44100 | 56.37667 | 33851 ft | 428 kts | 295° |
| 2026-05-05 02:31 | 23.46800 | 56.31895 | 33851 ft | 427 kts | 295° |
| 2026-05-05 02:31 | 23.49490 | 56.26123 | 33837 ft | 427 kts | 295° |
| 2026-05-05 02:32 | 23.52188 | 56.20353 | 33837 ft | 427 kts | 295° |
| 2026-05-05 02:32 | 23.54873 | 56.14580 | 33835 ft | 427 kts | 295° |
| 2026-05-05 02:33 | 23.57548 | 56.08840 | 33832 ft | 427 kts | 295° |
| 2026-05-05 02:33 | 23.60238 | 56.03064 | 33841 ft | 427 kts | 295° |
| 2026-05-05 02:34 | 23.62917 | 55.97288 | 33827 ft | 427 kts | 295° |
| 2026-05-05 02:34 | 23.65141 | 55.92476 | 33837 ft | 426 kts | 295° |
| 2026-05-05 02:35 | 23.67833 | 55.86664 | 33826 ft | 426 kts | 295° |
| 2026-05-05 02:35 | 23.70491 | 55.80927 | 33827 ft | 426 kts | 295° |
| 2026-05-05 02:36 | 23.73167 | 55.75154 | 33816 ft | 426 kts | 295° |
| 2026-05-05 02:36 | 23.75828 | 55.69377 | 33819 ft | 426 kts | 295° |
| 2026-05-05 02:37 | 23.78487 | 55.63598 | 33830 ft | 425 kts | 295° |
| 2026-05-05 02:37 | 23.81135 | 55.57829 | 33815 ft | 424 kts | 294° |
| 2026-05-05 02:38 | 23.84003 | 55.52200 | 33808 ft | 427 kts | 304° |
| 2026-05-05 02:38 | 23.87627 | 55.47052 | 33818 ft | 427 kts | 304° |
| 2026-05-05 02:39 | 23.91248 | 55.41893 | 33810 ft | 427 kts | 304° |
| 2026-05-05 02:39 | 23.94845 | 55.36754 | 33803 ft | 428 kts | 304° |
| 2026-05-05 02:40 | 23.98475 | 55.31555 | 33804 ft | 428 kts | 304° |
| 2026-05-05 02:40 | 24.02064 | 55.26407 | 33799 ft | 427 kts | 304° |
| 2026-05-05 02:41 | 24.05671 | 55.21237 | 33799 ft | 427 kts | 304° |
| 2026-05-05 02:41 | 24.09276 | 55.16058 | 33794 ft | 427 kts | 304° |
| 2026-05-05 02:42 | 24.12879 | 55.10880 | 33788 ft | 427 kts | 304° |
| 2026-05-05 02:42 | 24.16488 | 55.05701 | 33789 ft | 427 kts | 304° |
| 2026-05-05 02:43 | 24.20088 | 55.00530 | 33798 ft | 427 kts | 304° |
| 2026-05-05 02:43 | 24.23677 | 54.95360 | 33792 ft | 426 kts | 304° |
| 2026-05-05 02:44 | 24.27260 | 54.90184 | 33795 ft | 426 kts | 304° |
| 2026-05-05 02:44 | 24.30827 | 54.85025 | 33784 ft | 426 kts | 304° |
| 2026-05-05 02:45 | 24.34406 | 54.79846 | 33797 ft | 426 kts | 304° |
| 2026-05-05 02:45 | 24.37985 | 54.74678 | 33792 ft | 425 kts | 304° |
| 2026-05-05 02:46 | 24.41555 | 54.69510 | 33799 ft | 425 kts | 303° |
| 2026-05-05 02:46 | 24.45120 | 54.64340 | 33786 ft | 424 kts | 304° |
| 2026-05-05 02:47 | 24.48680 | 54.59169 | 33786 ft | 424 kts | 304° |
| 2026-05-05 02:47 | 24.52244 | 54.54006 | 33808 ft | 424 kts | 303° |
| 2026-05-05 02:48 | 24.55784 | 54.48856 | 33794 ft | 424 kts | 303° |
| 2026-05-05 02:48 | 24.59311 | 54.43686 | 33787 ft | 423 kts | 303° |
| 2026-05-05 02:49 | 24.62852 | 54.38523 | 33773 ft | 423 kts | 303° |
| 2026-05-05 02:49 | 24.66382 | 54.33387 | 33768 ft | 423 kts | 303° |
| 2026-05-05 02:50 | 24.69924 | 54.28217 | 33772 ft | 423 kts | 303° |
| 2026-05-05 02:50 | 24.73462 | 54.23046 | 33774 ft | 423 kts | 303° |
| 2026-05-05 02:51 | 24.76996 | 54.17878 | 33779 ft | 423 kts | 303° |
| 2026-05-05 02:51 | 24.80527 | 54.12704 | 33777 ft | 423 kts | 303° |
| 2026-05-05 02:52 | 24.84013 | 54.07489 | 33780 ft | 421 kts | 298° |
| 2026-05-05 02:52 | 24.87086 | 54.02013 | 33776 ft | 420 kts | 298° |
| 2026-05-05 02:53 | 24.90160 | 53.96529 | 33791 ft | 420 kts | 298° |
| 2026-05-05 02:53 | 24.93228 | 53.91051 | 33788 ft | 420 kts | 298° |
| 2026-05-05 02:54 | 24.96293 | 53.85568 | 33793 ft | 420 kts | 298° |
| 2026-05-05 02:54 | 24.99338 | 53.80124 | 33792 ft | 420 kts | 298° |
| 2026-05-05 02:55 | 25.02651 | 53.74825 | 33789 ft | 424 kts | 309° |
| 2026-05-05 02:55 | 25.06891 | 53.70248 | 33791 ft | 426 kts | 311° |
| 2026-05-05 02:56 | 25.11147 | 53.65686 | 33788 ft | 426 kts | 311° |
| 2026-05-05 02:56 | 25.15399 | 53.61124 | 33784 ft | 426 kts | 311° |
| 2026-05-05 02:57 | 25.19650 | 53.56557 | 33777 ft | 426 kts | 311° |
| 2026-05-05 02:57 | 25.23899 | 53.51985 | 33778 ft | 426 kts | 311° |
| 2026-05-05 02:58 | 25.28141 | 53.47415 | 33785 ft | 426 kts | 310° |
| 2026-05-05 02:58 | 25.32378 | 53.42849 | 33782 ft | 425 kts | 310° |
| 2026-05-05 02:59 | 25.36608 | 53.38283 | 33780 ft | 425 kts | 310° |
| 2026-05-05 02:59 | 25.40840 | 53.33720 | 33777 ft | 425 kts | 310° |
| 2026-05-05 03:00 | 25.44262 | 53.28570 | 33784 ft | 412 kts | 292° |
| 2026-05-05 03:00 | 25.46716 | 53.22839 | 33784 ft | 412 kts | 291° |
| 2026-05-05 03:01 | 25.49134 | 53.17138 | 33780 ft | 412 kts | 291° |
| 2026-05-05 03:01 | 25.51569 | 53.11401 | 33776 ft | 411 kts | 291° |
| 2026-05-05 03:02 | 25.54001 | 53.05680 | 33772 ft | 411 kts | 291° |
| 2026-05-05 03:02 | 25.56439 | 52.99940 | 33768 ft | 411 kts | 291° |
| 2026-05-05 03:03 | 25.58865 | 52.94213 | 33770 ft | 411 kts | 291° |
| 2026-05-05 03:03 | 25.61297 | 52.88467 | 33775 ft | 411 kts | 291° |
| 2026-05-05 03:04 | 25.63714 | 52.82740 | 33774 ft | 410 kts | 291° |
| 2026-05-05 03:04 | 25.66131 | 52.77009 | 33771 ft | 410 kts | 291° |
| 2026-05-05 03:05 | 25.68544 | 52.71290 | 33764 ft | 410 kts | 291° |
| 2026-05-05 03:05 | 25.70958 | 52.65564 | 33762 ft | 410 kts | 291° |
| 2026-05-05 03:06 | 25.73368 | 52.59827 | 33757 ft | 410 kts | 291° |
| 2026-05-05 03:06 | 25.75777 | 52.54087 | 33757 ft | 410 kts | 291° |
| 2026-05-05 03:07 | 25.78177 | 52.48342 | 33757 ft | 410 kts | 291° |
| 2026-05-05 03:07 | 25.80584 | 52.42594 | 33756 ft | 411 kts | 291° |
| 2026-05-05 03:08 | 25.82989 | 52.36845 | 33755 ft | 411 kts | 291° |
| 2026-05-05 03:08 | 25.85394 | 52.31094 | 33755 ft | 410 kts | 291° |
| 2026-05-05 03:09 | 25.88278 | 52.25592 | 32999 ft | 421 kts | 304° |
| 2026-05-05 03:09 | 25.90273 | 52.23105 | 31710 ft | 439 kts | 307° |
| 2026-05-05 03:09 | 25.92343 | 52.20626 | 31199 ft | 435 kts | 308° |
| 2026-05-05 03:09 | 25.94402 | 52.18183 | 30574 ft | 433 kts | 308° |
| 2026-05-05 03:10 | 25.96461 | 52.15735 | 29953 ft | 432 kts | 308° |
| 2026-05-05 03:10 | 25.98503 | 52.13294 | 29254 ft | 430 kts | 308° |
| 2026-05-05 03:10 | 26.00529 | 52.10856 | 28647 ft | 426 kts | 308° |
| 2026-05-05 03:10 | 26.02526 | 52.08440 | 28039 ft | 422 kts | 308° |
| 2026-05-05 03:11 | 26.04501 | 52.06046 | 27459 ft | 419 kts | 308° |
| 2026-05-05 03:11 | 26.06462 | 52.03669 | 26885 ft | 416 kts | 308° |
| 2026-05-05 03:11 | 26.08390 | 52.01334 | 26323 ft | 413 kts | 309° |
| 2026-05-05 03:11 | 26.10324 | 51.98985 | 25756 ft | 410 kts | 309° |
| 2026-05-05 03:12 | 26.12240 | 51.96656 | 25191 ft | 407 kts | 309° |
| 2026-05-05 03:12 | 26.14147 | 51.94336 | 24650 ft | 405 kts | 309° |
| 2026-05-05 03:12 | 26.16044 | 51.92029 | 24107 ft | 402 kts | 309° |
| 2026-05-05 03:12 | 26.17927 | 51.89741 | 23595 ft | 399 kts | 310° |
| 2026-05-05 03:13 | 26.19800 | 51.87468 | 23038 ft | 397 kts | 310° |
| 2026-05-05 03:13 | 26.21652 | 51.85218 | 22541 ft | 391 kts | 310° |
| 2026-05-05 03:13 | 26.23481 | 51.82999 | 22073 ft | 386 kts | 310° |
| 2026-05-05 03:13 | 26.25152 | 51.80705 | 21617 ft | 377 kts | 301° |
| 2026-05-05 03:14 | 26.26038 | 51.79014 | 21328 ft | 371 kts | 295° |
| 2026-05-05 03:14 | 26.27168 | 51.76450 | 20885 ft | 366 kts | 294° |
| 2026-05-05 03:14 | 26.28285 | 51.73929 | 20458 ft | 361 kts | 295° |
| 2026-05-05 03:14 | 26.29398 | 51.71436 | 20020 ft | 357 kts | 295° |
| 2026-05-05 03:15 | 26.30487 | 51.69002 | 19599 ft | 353 kts | 295° |
| 2026-05-05 03:15 | 26.31579 | 51.66556 | 19164 ft | 350 kts | 295° |
| 2026-05-05 03:15 | 26.32660 | 51.64133 | 18720 ft | 348 kts | 295° |
| 2026-05-05 03:15 | 26.33751 | 51.61690 | 18361 ft | 355 kts | 295° |
| 2026-05-05 03:16 | 26.34851 | 51.59221 | 17994 ft | 356 kts | 295° |
| 2026-05-05 03:16 | 26.35955 | 51.56717 | 17569 ft | 355 kts | 293° |
| 2026-05-05 03:16 | 26.36614 | 51.54124 | 17161 ft | 352 kts | 276° |
| 2026-05-05 03:16 | 26.36490 | 51.51401 | 16754 ft | 353 kts | 259° |
| 2026-05-05 03:17 | 26.35873 | 51.48764 | 16353 ft | 351 kts | 257° |
| 2026-05-05 03:17 | 26.35239 | 51.46143 | 15970 ft | 349 kts | 257° |
| 2026-05-05 03:17 | 26.34606 | 51.43539 | 15581 ft | 345 kts | 257° |
| 2026-05-05 03:17 | 26.33978 | 51.40968 | 15205 ft | 342 kts | 257° |
| 2026-05-05 03:18 | 26.33356 | 51.38414 | 14825 ft | 340 kts | 258° |
| 2026-05-05 03:18 | 26.32744 | 51.35884 | 14451 ft | 338 kts | 258° |
| 2026-05-05 03:18 | 26.32133 | 51.33356 | 14077 ft | 336 kts | 258° |
| 2026-05-05 03:18 | 26.31524 | 51.30838 | 13708 ft | 335 kts | 258° |
| 2026-05-05 03:19 | 26.30317 | 51.25843 | 12879 ft | 332 kts | 258° |
| 2026-05-05 03:19 | 26.29720 | 51.23381 | 12399 ft | 326 kts | 258° |
| 2026-05-05 03:19 | 26.29132 | 51.20970 | 11933 ft | 320 kts | 258° |
| 2026-05-05 03:20 | 26.28553 | 51.18606 | 11500 ft | 313 kts | 258° |
| 2026-05-05 03:20 | 26.27983 | 51.16285 | 11117 ft | 306 kts | 258° |
| 2026-05-05 03:20 | 26.27428 | 51.14015 | 10741 ft | 300 kts | 258° |
| 2026-05-05 03:20 | 26.26885 | 51.11799 | 10368 ft | 294 kts | 258° |
| 2026-05-05 03:21 | 26.26351 | 51.09617 | 10000 ft | 289 kts | 258° |
| 2026-05-05 03:21 | 26.25824 | 51.07461 | 9629 ft | 288 kts | 258° |
| 2026-05-05 03:21 | 26.25299 | 51.05313 | 9231 ft | 287 kts | 258° |
| 2026-05-05 03:21 | 26.24774 | 51.03160 | 8843 ft | 287 kts | 258° |
| 2026-05-05 03:22 | 26.24250 | 51.01015 | 8448 ft | 286 kts | 258° |
| 2026-05-05 03:22 | 26.23729 | 50.98878 | 8057 ft | 286 kts | 258° |
| 2026-05-05 03:22 | 26.23208 | 50.96744 | 7680 ft | 286 kts | 258° |
| 2026-05-05 03:22 | 26.22687 | 50.94613 | 7304 ft | 284 kts | 258° |
| 2026-05-05 03:23 | 26.22167 | 50.92492 | 6936 ft | 283 kts | 257° |
| 2026-05-05 03:23 | 26.21645 | 50.90377 | 6567 ft | 283 kts | 257° |
| 2026-05-05 03:23 | 26.21127 | 50.88274 | 6202 ft | 281 kts | 257° |
| 2026-05-05 03:23 | 26.20612 | 50.86196 | 5818 ft | 275 kts | 257° |
| 2026-05-05 03:24 | 26.20102 | 50.84135 | 5429 ft | 268 kts | 257° |
| 2026-05-05 03:24 | 26.19612 | 50.82146 | 4816 ft | 273 kts | 256° |
| 2026-05-05 03:24 | 26.19144 | 50.80078 | 4109 ft | 278 kts | 264° |
| 2026-05-05 03:24 | 26.19167 | 50.77928 | 3405 ft | 280 kts | 283° |
| 2026-05-05 03:25 | 26.19838 | 50.75903 | 2643 ft | 277 kts | 303° |
| 2026-05-05 03:25 | 26.20856 | 50.74124 | 1959 ft | 267 kts | 305° |
| 2026-05-05 03:25 | 26.21834 | 50.72445 | 1565 ft | 249 kts | 304° |
| 2026-05-05 03:25 | 26.22731 | 50.70896 | 1268 ft | 226 kts | 304° |
| 2026-05-05 03:26 | 26.23542 | 50.69493 | 988 ft | 204 kts | 303° |
| 2026-05-05 03:26 | 26.24259 | 50.68257 | 863 ft | 171 kts | 303° |
| 2026-05-05 03:26 | 26.24874 | 50.67208 | 561 ft | 153 kts | 302° |
| 2026-05-05 03:26 | 26.25428 | 50.66239 | 323 ft | 145 kts | 302° |
| 2026-05-05 03:27 | 26.25956 | 50.65323 | 155 ft | 141 kts | 302° |
| 2026-05-05 03:27 | 26.26488 | 50.64396 | 27 ft | 135 kts | 303° |
| 2026-05-05 03:27 | 26.26880 | 50.63719 | 18 ft | 113 kts | 303° |
| 2026-05-05 03:27 | 26.27342 | 50.62899 | 29 ft | 150 kts | 300° |
| 2026-05-05 03:28 | 26.27968 | 50.61865 | 426 ft | 169 kts | 303° |
| 2026-05-05 03:28 | 26.28639 | 50.60731 | 886 ft | 182 kts | 305° |
| 2026-05-05 03:28 | 26.29587 | 50.59768 | 1342 ft | 192 kts | 337° |
| 2026-05-05 03:28 | 26.30876 | 50.59296 | 1813 ft | 195 kts | 348° |
| 2026-05-05 03:29 | 26.32231 | 50.59194 | 2001 ft | 199 kts | 11° |
| 2026-05-05 03:29 | 26.33584 | 50.59559 | 2023 ft | 201 kts | 17° |
| 2026-05-05 03:29 | 26.34860 | 50.60178 | 2008 ft | 201 kts | 40° |
| 2026-05-05 03:29 | 26.35598 | 50.61478 | 2023 ft | 203 kts | 76° |
| 2026-05-05 03:30 | 26.35478 | 50.63037 | 2028 ft | 208 kts | 112° |
| 2026-05-05 03:30 | 26.34746 | 50.64436 | 2033 ft | 211 kts | 122° |
| 2026-05-05 03:30 | 26.33904 | 50.65793 | 2035 ft | 214 kts | 122° |
| 2026-05-05 03:30 | 26.33045 | 50.67147 | 1992 ft | 212 kts | 123° |
| 2026-05-05 03:31 | 26.32204 | 50.68455 | 1859 ft | 203 kts | 123° |
| 2026-05-05 03:31 | 26.31401 | 50.69702 | 1692 ft | 195 kts | 123° |
| 2026-05-05 03:31 | 26.30619 | 50.70932 | 1563 ft | 194 kts | 123° |
| 2026-05-05 03:31 | 26.29836 | 50.72155 | 1533 ft | 194 kts | 122° |
| 2026-05-05 03:32 | 26.29048 | 50.73385 | 1535 ft | 194 kts | 122° |
| 2026-05-05 03:32 | 26.28276 | 50.74598 | 1534 ft | 193 kts | 123° |
| 2026-05-05 03:32 | 26.27482 | 50.75806 | 1530 ft | 196 kts | 129° |
| 2026-05-05 03:32 | 26.26327 | 50.76594 | 1526 ft | 200 kts | 168° |
| 2026-05-05 03:33 | 26.24939 | 50.76419 | 1532 ft | 202 kts | 207° |
| 2026-05-05 03:33 | 26.23798 | 50.75523 | 1542 ft | 201 kts | 220° |
| 2026-05-05 03:33 | 26.22812 | 50.74428 | 1532 ft | 202 kts | 238° |
| 2026-05-05 03:33 | 26.22318 | 50.73000 | 1458 ft | 197 kts | 266° |
| 2026-05-05 03:34 | 26.22456 | 50.71522 | 1335 ft | 190 kts | 293° |
| 2026-05-05 03:34 | 26.23086 | 50.70274 | 1135 ft | 185 kts | 304° |
| 2026-05-05 03:34 | 26.23759 | 50.69115 | 903 ft | 165 kts | 304° |
| 2026-05-05 03:34 | 26.24347 | 50.68104 | 713 ft | 147 kts | 302° |
| 2026-05-05 03:35 | 26.24887 | 50.67169 | 532 ft | 142 kts | 302° |
| 2026-05-05 03:35 | 26.25420 | 50.66247 | 360 ft | 141 kts | 303° |
| 2026-05-05 03:35 | 26.25954 | 50.65324 | 182 ft | 142 kts | 302° |
| 2026-05-05 03:35 | 26.26486 | 50.64404 | 27 ft | 138 kts | 302° |
| 2026-05-05 03:36 | 26.26937 | 50.63617 | 16 ft | 94 kts | 303° |
| 2026-05-05 03:36 | 26.27152 | 50.63245 | 17 ft | 25 kts | 302° |
| 2026-05-05 03:36 | 26.27207 | 50.63148 | 16 ft | 7 kts | 300° |
| 2026-05-05 03:36 | 26.27241 | 50.63066 | 16 ft | 14 kts | 287° |
| 2026-05-05 03:37 | 26.27255 | 50.62955 | 17 ft | 15 kts | 274° |
| 2026-05-05 03:37 | 26.27243 | 50.62849 | 20 ft | 13 kts | 226° |
| 2026-05-05 03:37 | 26.27179 | 50.62864 | 20 ft | 9 kts | 131° |
| 2026-05-05 03:37 | 26.27148 | 50.62908 | 23 ft | 5 kts | 137° |
| 2026-05-05 03:38 | 26.27125 | 50.62913 | 22 ft | 1 kts | 181° |
| 2026-05-05 03:38 | 26.27107 | 50.62905 | 23 ft | 5 kts | 207° |
| 2026-05-05 03:38 | 26.27067 | 50.62871 | 23 ft | 8 kts | 244° |
| 2026-05-05 03:38 | 26.27075 | 50.62814 | 21 ft | 8 kts | 304° |
| 2026-05-05 03:39 | 26.27092 | 50.62773 | 21 ft | 4 kts | 260° |
| 2026-05-05 03:39 | 26.27075 | 50.62753 | 22 ft | 3 kts | 219° |
| 2026-05-05 03:39 | 26.27057 | 50.62739 | 21 ft | 3 kts | 211° |
| 2026-05-05 03:39 | 26.27040 | 50.62727 | 22 ft | 3 kts | 213° |
| 2026-05-05 03:40 | 26.27025 | 50.62717 | 23 ft | 2 kts | 213° |
| 2026-05-05 03:40 | 26.27020 | 50.62713 | 22 ft | 0 kts | 213° |
| 2026-05-05 03:40 | 26.27018 | 50.62712 | 22 ft | 0 kts | 213° |